Time;durP1;ratioP1;P1;durP2;ratioP2;P2;SDS_P1;SDS_P2;PMS_P1;PMS_P2;Temp;Humidity;BMP_temperature;BMP_pressure;BME280_temperature;BME280_humidity;BME280_pressure;Samples;Min_cycle;Max_cycle;Signal;HPM_P1;HPM_P2
2021/11/25 00:02:04;;;;;;;19.00;10.40;;;7.50;99.90;;;;;;5033942;28;20372;-72
2021/11/25 00:05:09;;;;;;;18.27;9.82;;;7.50;99.90;;;;;;5032996;28;20113;-72
2021/11/25 00:08:13;;;;;;;19.67;9.82;;;7.50;99.90;;;;;;5031662;28;20040;-71
2021/11/25 00:11:17;;;;;;;24.80;14.00;;;7.60;99.90;;;;;;5033446;28;20064;-72
2021/11/25 00:14:22;;;;;;;23.23;11.75;;;7.50;99.90;;;;;;5032909;28;20045;-71
2021/11/25 00:17:26;;;;;;;19.58;9.38;;;7.50;99.90;;;;;;5032357;28;20037;-71
2021/11/25 00:20:30;;;;;;;17.00;9.18;;;7.40;99.90;;;;;;5032530;28;20044;-71
2021/11/25 00:23:34;;;;;;;16.92;9.95;;;7.40;99.90;;;;;;5012846;28;20041;-72
2021/11/25 00:26:38;;;;;;;17.83;10.02;;;7.30;99.90;;;;;;5027504;28;20040;-71
2021/11/25 00:29:43;;;;;;;14.60;8.98;;;7.30;99.90;;;;;;5032472;28;20049;-71
2021/11/25 00:32:46;;;;;;;17.67;9.90;;;7.20;99.90;;;;;;5013105;28;20476;-71
2021/11/25 00:35:50;;;;;;;16.30;10.57;;;7.20;99.90;;;;;;5029580;28;20044;-72
2021/11/25 00:38:54;;;;;;;17.83;11.35;;;7.10;99.90;;;;;;5031755;28;20045;-71
2021/11/25 00:41:58;;;;;;;24.15;14.93;;;7.00;99.90;;;;;;5032887;28;20052;-71
2021/11/25 00:45:04;;;;;;;24.58;15.68;;;7.00;99.90;;;;;;5031665;28;20041;-72
2021/11/25 00:48:09;;;;;;;21.55;11.98;;;6.90;99.90;;;;;;5031367;28;20044;-71
2021/11/25 00:51:12;;;;;;;17.73;10.00;;;6.80;99.90;;;;;;5031868;28;20041;-71
2021/11/25 00:54:16;;;;;;;18.25;9.45;;;6.80;99.90;;;;;;5031855;28;20511;-71
2021/11/25 00:57:21;;;;;;;18.35;9.88;;;6.90;99.90;;;;;;5031634;28;20064;-71
2021/11/25 01:00:25;;;;;;;17.02;9.40;;;6.90;99.90;;;;;;5032223;28;20046;-72
2021/11/25 01:03:29;;;;;;;12.95;8.32;;;6.90;99.90;;;;;;5031728;28;20040;-72
2021/11/25 01:06:33;;;;;;;19.55;9.07;;;6.80;99.90;;;;;;5031331;28;20048;-72
2021/11/25 01:09:38;;;;;;;14.55;8.15;;;6.80;99.90;;;;;;5031725;28;20503;-72
2021/11/25 01:12:43;;;;;;;13.52;8.00;;;6.80;99.90;;;;;;5031816;28;20040;-72
2021/11/25 01:15:47;;;;;;;16.60;8.15;;;6.80;99.90;;;;;;5031099;28;20112;-72
2021/11/25 01:18:51;;;;;;;18.85;9.48;;;6.70;99.90;;;;;;5031864;28;20041;-71
2021/11/25 01:21:56;;;;;;;20.88;9.70;;;6.50;99.90;;;;;;5032003;28;20036;-71
2021/11/25 01:25:01;;;;;;;17.70;9.18;;;6.30;99.90;;;;;;5031596;28;20045;-72
2021/11/25 01:28:12;;;;;;;18.40;9.82;;;6.30;99.90;;;;;;5030881;28;20523;-72
2021/11/25 01:31:16;;;;;;;24.80;11.65;;;6.40;99.90;;;;;;5031857;28;20525;-71
2021/11/25 01:34:20;;;;;;;23.35;11.63;;;6.30;99.90;;;;;;5029974;28;20060;-72
2021/11/25 01:37:27;;;;;;;19.05;10.38;;;6.30;99.90;;;;;;5030924;28;20040;-72
2021/11/25 01:40:31;;;;;;;17.30;9.93;;;6.30;99.90;;;;;;5031205;28;20495;-71
2021/11/25 01:43:38;;;;;;;18.25;9.70;;;6.20;99.90;;;;;;5031221;28;20380;-72
2021/11/25 01:46:43;;;;;;;25.08;13.25;;;6.20;99.90;;;;;;5030770;28;20052;-72
2021/11/25 01:49:47;;;;;;;21.33;11.98;;;6.20;99.90;;;;;;5031601;28;20064;-72
2021/11/25 01:52:52;;;;;;;19.92;11.02;;;6.20;99.90;;;;;;5031139;28;20049;-72
2021/11/25 01:55:58;;;;;;;19.02;9.48;;;6.30;99.90;;;;;;5030615;28;20323;-72
2021/11/25 01:59:02;;;;;;;16.50;9.63;;;6.40;99.90;;;;;;5030839;28;20053;-72
2021/11/25 02:02:07;;;;;;;17.50;9.63;;;6.60;99.90;;;;;;5010860;28;20049;-72
2021/11/25 02:05:12;;;;;;;16.13;8.90;;;6.60;99.90;;;;;;5025865;28;20040;-72
2021/11/25 02:08:16;;;;;;;16.30;8.07;;;6.70;99.90;;;;;;5041064;28;20039;-71
2021/11/25 02:11:20;;;;;;;16.83;9.10;;;6.80;99.90;;;;;;5031498;28;20044;-71
2021/11/25 02:14:25;;;;;;;17.27;9.05;;;6.70;99.90;;;;;;5030139;28;20048;-71
2021/11/25 02:17:28;;;;;;;15.80;9.85;;;6.80;99.90;;;;;;5030401;28;20052;-72
2021/11/25 02:20:37;;;;;;;22.40;10.18;;;6.60;99.90;;;;;;5031192;28;20407;-71
2021/11/25 02:23:43;;;;;;;19.23;10.40;;;6.60;99.90;;;;;;5030496;28;20124;-71
2021/11/25 02:26:47;;;;;;;16.80;8.80;;;6.50;99.90;;;;;;5029835;28;20060;-71
2021/11/25 02:29:51;;;;;;;21.25;9.73;;;6.50;99.90;;;;;;5030288;28;20399;-71
2021/11/25 02:32:55;;;;;;;17.95;9.38;;;6.40;99.90;;;;;;5028570;28;20224;-72
2021/11/25 02:36:00;;;;;;;16.05;9.93;;;6.50;99.90;;;;;;5030079;28;20037;-71
2021/11/25 02:39:05;;;;;;;15.93;8.63;;;6.50;99.90;;;;;;5030762;28;20052;-72
2021/11/25 02:42:10;;;;;;;16.33;9.05;;;6.60;99.90;;;;;;5030442;28;20503;-72
2021/11/25 02:45:15;;;;;;;15.43;8.48;;;6.70;99.90;;;;;;5031723;28;20045;-72
2021/11/25 02:48:23;;;;;;;15.82;8.88;;;6.70;99.90;;;;;;5034135;28;20056;-72
2021/11/25 02:51:31;;;;;;;18.42;9.48;;;6.80;99.90;;;;;;5015173;28;20041;-72
2021/11/25 02:54:35;;;;;;;16.63;10.15;;;6.80;99.90;;;;;;5030087;28;20044;-72
2021/11/25 02:57:40;;;;;;;14.77;9.23;;;6.90;99.90;;;;;;5034140;28;20048;-72
2021/11/25 03:00:47;;;;;;;15.63;8.70;;;6.90;99.90;;;;;;5014821;28;20061;-72
2021/11/25 03:03:51;;;;;;;17.33;9.88;;;6.90;99.90;;;;;;5032504;28;20044;-72
2021/11/25 03:06:55;;;;;;;17.15;8.85;;;6.90;99.90;;;;;;5033925;28;20052;-72
2021/11/25 03:10:00;;;;;;;13.32;9.05;;;6.80;99.90;;;;;;5034161;28;20045;-72
2021/11/25 03:13:06;;;;;;;15.90;9.43;;;6.90;99.90;;;;;;5030278;28;20044;-72
2021/11/25 03:16:11;;;;;;;15.73;9.88;;;6.90;99.90;;;;;;5033383;28;20064;-72
2021/11/25 03:19:15;;;;;;;19.95;12.05;;;7.00;99.90;;;;;;5034046;28;20040;-72
2021/11/25 03:22:20;;;;;;;26.27;14.30;;;7.00;99.90;;;;;;5033872;28;20048;-72
2021/11/25 03:25:24;;;;;;;19.38;11.52;;;7.00;99.90;;;;;;5033445;28;20492;-72
2021/11/25 03:28:30;;;;;;;22.50;12.75;;;6.90;99.90;;;;;;5033845;28;20052;-72
2021/11/25 03:31:34;;;;;;;18.92;10.48;;;6.90;99.90;;;;;;5014501;28;20065;-72
2021/11/25 03:34:39;;;;;;;17.98;10.13;;;7.00;99.90;;;;;;5027089;28;20065;-71
2021/11/25 03:37:43;;;;;;;17.83;11.05;;;7.00;99.90;;;;;;5034090;28;20056;-73
2021/11/25 03:40:48;;;;;;;20.05;11.07;;;7.00;99.90;;;;;;5014062;28;20056;-73
2021/11/25 03:43:53;;;;;;;21.83;12.02;;;7.10;99.90;;;;;;5029430;28;20040;-73
2021/11/25 03:46:57;;;;;;;21.17;11.77;;;7.10;99.90;;;;;;5033093;28;20052;-73
2021/11/25 03:50:02;;;;;;;15.70;9.90;;;7.20;99.90;;;;;;5032553;28;20388;-73
2021/11/25 03:53:08;;;;;;;19.55;11.20;;;7.30;99.90;;;;;;5032466;28;20044;-73
2021/11/25 03:56:13;;;;;;;21.88;12.27;;;7.30;99.90;;;;;;5032477;28;20064;-73
2021/11/25 03:59:17;;;;;;;22.42;11.20;;;7.10;99.90;;;;;;5033445;28;20068;-73
2021/11/25 04:02:21;;;;;;;23.45;11.43;;;7.10;99.90;;;;;;5030133;28;20049;-73
2021/11/25 04:05:26;;;;;;;25.92;13.45;;;6.80;99.90;;;;;;5032555;28;20044;-73
2021/11/25 04:08:31;;;;;;;29.35;14.77;;;6.30;99.90;;;;;;5033101;28;20044;-73
2021/11/25 04:11:35;;;;;;;21.92;12.93;;;6.10;99.90;;;;;;5031886;28;20048;-73
2021/11/25 04:14:39;;;;;;;22.45;12.60;;;6.20;99.90;;;;;;5032412;28;20048;-73
2021/11/25 04:17:44;;;;;;;23.40;13.43;;;6.40;99.90;;;;;;5033133;28;20033;-73
2021/11/25 04:20:48;;;;;;;24.88;13.23;;;6.50;99.90;;;;;;5013128;28;20511;-72
2021/11/25 04:23:52;;;;;;;26.60;14.05;;;6.60;99.90;;;;;;5026142;28;20407;-72
2021/11/25 04:26:56;;;;;;;27.42;14.25;;;6.70;99.90;;;;;;5032903;28;20384;-73
2021/11/25 04:30:08;;;;;;;27.33;14.13;;;6.80;99.90;;;;;;5043132;28;20048;-72
2021/11/25 04:36:36;;;;;;;27.38;14.65;;;6.90;99.90;;;;;;5032088;28;20044;-73
2021/11/25 04:39:41;;;;;;;22.25;13.80;;;6.90;99.90;;;;;;5032561;28;20495;-73
2021/11/25 04:42:45;;;;;;;21.92;13.25;;;6.90;99.90;;;;;;5029434;28;20419;-73
2021/11/25 04:45:50;;;;;;;23.23;12.77;;;7.00;99.90;;;;;;5031912;28;20515;-73
2021/11/25 04:48:54;;;;;;;20.92;11.93;;;7.00;99.90;;;;;;5032149;28;20041;-73
2021/11/25 04:51:58;;;;;;;28.05;13.10;;;7.00;99.90;;;;;;5031758;28;20417;-73
2021/11/25 04:55:03;;;;;;;26.30;13.20;;;7.00;99.90;;;;;;5031512;28;20045;-73
2021/11/25 04:58:07;;;;;;;28.40;14.45;;;7.00;99.90;;;;;;5031917;28;20040;-73
2021/11/25 05:01:11;;;;;;;32.60;14.70;;;6.50;99.90;;;;;;5032489;28;20052;-73
2021/11/25 05:04:15;;;;;;;32.15;16.67;;;6.20;99.90;;;;;;5023667;28;20052;-73
2021/11/25 05:07:19;;;;;;;36.40;18.17;;;6.00;99.90;;;;;;5032068;28;20515;-73
2021/11/25 05:10:24;;;;;;;30.05;17.42;;;6.10;99.90;;;;;;5011447;28;20065;-73
2021/11/25 05:13:28;;;;;;;29.23;17.08;;;6.20;99.90;;;;;;5027667;28;20507;-73
2021/11/25 05:16:33;;;;;;;30.60;17.75;;;6.30;99.90;;;;;;5031454;28;20040;-73
2021/11/25 05:19:38;;;;;;;40.95;17.90;;;6.50;99.90;;;;;;5011565;28;20057;-73
2021/11/25 05:22:43;;;;;;;31.30;15.43;;;6.70;99.90;;;;;;5029412;28;20040;-73
2021/11/25 05:25:47;;;;;;;24.33;14.80;;;6.70;99.90;;;;;;5031331;28;20052;-73
2021/11/25 05:28:51;;;;;;;30.30;15.93;;;6.80;99.90;;;;;;5031362;28;20377;-73
2021/11/25 05:31:55;;;;;;;26.77;15.45;;;6.90;99.90;;;;;;5028949;28;20042;-73
2021/11/25 05:34:59;;;;;;;26.10;14.85;;;6.90;99.90;;;;;;5018379;28;20044;-73
2021/11/25 05:38:04;;;;;;;24.63;14.82;;;7.00;99.90;;;;;;5031789;28;20396;-73
2021/11/25 05:41:09;;;;;;;24.98;14.55;;;7.00;99.90;;;;;;5030581;28;20048;-73
2021/11/25 05:44:13;;;;;;;24.73;12.73;;;7.10;99.90;;;;;;5030834;28;20053;-73
2021/11/25 05:47:18;;;;;;;22.92;12.98;;;7.20;99.90;;;;;;5031685;28;20514;-73
2021/11/25 05:50:25;;;;;;;18.60;11.88;;;7.20;99.90;;;;;;5031433;28;20052;-73
2021/11/25 05:53:28;;;;;;;20.25;11.77;;;7.30;99.90;;;;;;5030678;28;20056;-72
2021/11/25 05:56:32;;;;;;;24.98;13.75;;;7.40;99.90;;;;;;5029325;28;20040;-73
2021/11/25 05:59:36;;;;;;;27.80;12.60;;;7.50;99.90;;;;;;5031227;28;20048;-73
2021/11/25 06:02:43;;;;;;;164.80;20.35;;;7.40;99.90;;;;;;5030328;28;20052;-73
2021/11/25 06:05:47;;;;;;;23.50;14.68;;;7.20;99.90;;;;;;5031511;28;20389;-73
2021/11/25 06:08:51;;;;;;;23.75;14.75;;;7.10;99.90;;;;;;5011411;28;20052;-73
2021/11/25 06:11:54;;;;;;;28.35;16.20;;;7.10;99.90;;;;;;5027781;28;20052;-73
2021/11/25 06:14:58;;;;;;;150.45;21.38;;;7.00;99.90;;;;;;5029962;28;20121;-73
2021/11/25 06:18:02;;;;;;;27.98;16.38;;;6.70;99.90;;;;;;5030268;28;20053;-73
2021/11/25 06:21:07;;;;;;;31.42;16.55;;;6.80;99.90;;;;;;5030181;28;20064;-72
2021/11/25 06:24:11;;;;;;;463.05;41.67;;;6.80;99.90;;;;;;5030425;28;20068;-73
2021/11/25 06:27:15;;;;;;;198.48;25.17;;;6.50;99.90;;;;;;5031209;28;20040;-73
2021/11/25 06:30:19;;;;;;;32.20;17.85;;;6.40;99.90;;;;;;5030535;28;20076;-73
2021/11/25 06:33:23;;;;;;;27.25;15.25;;;6.40;99.90;;;;;;5030269;28;20543;-72
2021/11/25 06:36:27;;;;;;;28.50;16.83;;;6.50;99.90;;;;;;5031342;28;20518;-72
2021/11/25 06:39:31;;;;;;;30.58;18.00;;;6.60;99.90;;;;;;5040254;28;20040;-72
2021/11/25 06:42:36;;;;;;;32.63;17.05;;;6.70;99.90;;;;;;5030246;28;20053;-72
2021/11/25 06:45:42;;;;;;;32.22;16.90;;;6.80;99.90;;;;;;5030660;28;20053;-73
2021/11/25 06:48:45;;;;;;;29.05;16.85;;;6.90;99.90;;;;;;5030401;28;20060;-73
2021/11/25 06:51:50;;;;;;;35.33;17.92;;;6.90;99.90;;;;;;5030156;28;20040;-73
2021/11/25 06:54:54;;;;;;;28.33;15.65;;;6.90;99.90;;;;;;5030371;28;20515;-73
2021/11/25 06:57:58;;;;;;;28.55;16.08;;;6.90;99.90;;;;;;5011276;28;20048;-73
2021/11/25 07:01:06;;;;;;;28.02;16.60;;;6.90;99.90;;;;;;5026575;28;20048;-72
2021/11/25 07:04:13;;;;;;;27.17;15.70;;;7.00;99.90;;;;;;5030161;28;20052;-72
2021/11/25 07:07:16;;;;;;;27.75;15.20;;;7.10;99.90;;;;;;5030580;28;20056;-72
2021/11/25 07:10:21;;;;;;;25.17;15.73;;;7.30;99.90;;;;;;5028911;28;20052;-73
2021/11/25 07:13:27;;;;;;;25.23;12.88;;;7.40;99.90;;;;;;5028783;28;20069;-72
2021/11/25 07:16:31;;;;;;;35.17;14.48;;;7.50;99.90;;;;;;5027914;28;20471;-72
2021/11/25 07:19:35;;;;;;;24.08;13.38;;;7.60;99.90;;;;;;5027929;28;20052;-73
2021/11/25 07:22:39;;;;;;;37.70;15.57;;;7.70;99.90;;;;;;5029677;28;20046;-73
2021/11/25 07:25:43;;;;;;;38.70;15.55;;;7.80;99.90;;;;;;5029652;28;20052;-73
2021/11/25 07:28:47;;;;;;;22.13;12.80;;;7.80;99.90;;;;;;5029132;28;20056;-72
2021/11/25 07:31:51;;;;;;;21.67;10.90;;;7.80;99.90;;;;;;5028182;28;20400;-73
2021/11/25 07:34:55;;;;;;;23.42;12.82;;;7.80;99.90;;;;;;5032684;28;20388;-73
2021/11/25 07:38:02;;;;;;;25.35;14.68;;;7.80;99.90;;;;;;5033092;28;20044;-73
2021/11/25 07:41:06;;;;;;;24.45;13.77;;;7.90;99.90;;;;;;5027927;28;20036;-72
2021/11/25 07:44:10;;;;;;;19.83;12.23;;;8.00;99.90;;;;;;5033182;28;20565;-73
2021/11/25 07:47:19;;;;;;;18.73;12.00;;;8.00;99.90;;;;;;5032833;28;20040;-73
2021/11/25 07:50:26;;;;;;;19.38;10.90;;;8.00;99.90;;;;;;5032206;28;20046;-73
2021/11/25 07:53:30;;;;;;;20.60;11.63;;;8.00;99.90;;;;;;5040204;28;20056;-73
2021/11/25 07:56:38;;;;;;;17.85;11.18;;;8.10;99.90;;;;;;5029389;28;20495;-73
2021/11/25 07:59:43;;;;;;;22.48;11.68;;;8.30;99.90;;;;;;5030193;28;20123;-73
2021/11/25 08:02:47;;;;;;;19.27;11.20;;;8.60;99.90;;;;;;5029389;28;20049;-72
2021/11/25 08:05:52;;;;;;;24.25;13.48;;;8.80;99.90;;;;;;5032199;28;20267;-73
2021/11/25 08:08:56;;;;;;;20.42;11.35;;;8.90;99.90;;;;;;5031559;28;20400;-73
2021/11/25 08:12:01;;;;;;;24.10;12.48;;;8.90;99.90;;;;;;5029788;28;20587;-72
2021/11/25 08:15:06;;;;;;;27.42;13.95;;;8.90;99.90;;;;;;5032706;28;20438;-73
2021/11/25 08:18:10;;;;;;;30.95;15.60;;;8.80;99.90;;;;;;5032128;28;20045;-73
2021/11/25 08:21:14;;;;;;;35.78;17.42;;;8.70;99.90;;;;;;5031978;28;20056;-73
2021/11/25 08:24:18;;;;;;;28.42;14.15;;;8.70;99.90;;;;;;5032682;28;20072;-73
2021/11/25 08:27:23;;;;;;;21.45;12.68;;;8.50;99.90;;;;;;5020461;28;20040;-73
2021/11/25 08:30:29;;;;;;;31.38;13.32;;;8.30;99.90;;;;;;5029314;28;20388;-73
2021/11/25 08:33:34;;;;;;;26.42;13.35;;;8.30;99.90;;;;;;5029638;28;20072;-72
2021/11/25 08:36:39;;;;;;;23.65;14.43;;;8.30;99.90;;;;;;5027567;28;20041;-73
2021/11/25 08:39:43;;;;;;;21.95;12.55;;;8.50;99.90;;;;;;5028047;28;20040;-73
2021/11/25 08:42:48;;;;;;;22.98;12.63;;;8.60;99.90;;;;;;5028908;28;20591;-73
2021/11/25 08:45:53;;;;;;;17.98;12.25;;;8.70;99.90;;;;;;5028776;28;20048;-73
2021/11/25 08:48:57;;;;;;;22.55;13.60;;;8.70;99.90;;;;;;5029842;28;20064;-73
2021/11/25 08:52:03;;;;;;;18.73;11.90;;;8.70;99.90;;;;;;5031604;28;20423;-73
2021/11/25 08:55:08;;;;;;;21.35;14.10;;;8.70;99.90;;;;;;5015700;28;20037;-73
2021/11/25 08:58:12;;;;;;;20.10;11.88;;;8.90;99.90;;;;;;5031196;28;20065;-73
2021/11/25 09:01:18;;;;;;;18.80;12.07;;;9.00;99.90;;;;;;5022727;28;20037;-73
2021/11/25 09:04:22;;;;;;;21.77;12.82;;;9.00;99.90;;;;;;5031181;28;20040;-73
2021/11/25 09:07:26;;;;;;;19.25;12.00;;;9.10;99.90;;;;;;5030173;28;20488;-73
2021/11/25 09:10:30;;;;;;;17.95;11.82;;;9.10;99.90;;;;;;5030448;28;20068;-73
2021/11/25 09:13:34;;;;;;;20.60;11.10;;;9.10;99.90;;;;;;5030772;28;20037;-73
2021/11/25 09:16:38;;;;;;;21.75;12.48;;;9.10;99.90;;;;;;5024716;28;20060;-73
2021/11/25 09:19:42;;;;;;;27.63;11.85;;;9.20;99.90;;;;;;5025921;28;20419;-73
2021/11/25 09:22:46;;;;;;;15.60;10.77;;;9.30;99.90;;;;;;5038051;28;20530;-73
2021/11/25 09:25:52;;;;;;;19.33;12.70;;;9.40;99.90;;;;;;5031284;28;20032;-73
2021/11/25 09:28:58;;;;;;;15.48;9.82;;;9.50;99.90;;;;;;5030694;28;20052;-73
2021/11/25 09:32:03;;;;;;;17.25;11.10;;;9.70;99.90;;;;;;5027847;28;20123;-73
2021/11/25 09:35:07;;;;;;;23.42;12.73;;;9.70;99.90;;;;;;5029790;28;20060;-73
2021/11/25 09:38:13;;;;;;;18.40;11.43;;;9.80;99.90;;;;;;5029510;28;20495;-73
2021/11/25 09:41:16;;;;;;;21.42;12.80;;;9.90;99.90;;;;;;5038699;28;20091;-73
2021/11/25 09:44:21;;;;;;;14.65;9.57;;;9.90;99.90;;;;;;5028922;28;20495;-73
2021/11/25 09:47:26;;;;;;;17.45;9.63;;;10.10;99.90;;;;;;5025631;28;20045;-73
2021/11/25 09:50:34;;;;;;;13.02;9.23;;;10.30;99.90;;;;;;5028239;28;20040;-73
2021/11/25 09:53:38;;;;;;;12.95;8.32;;;10.50;99.90;;;;;;5029842;28;20056;-73
2021/11/25 09:56:43;;;;;;;13.73;8.73;;;10.50;99.90;;;;;;5030237;28;20044;-73
2021/11/25 09:59:49;;;;;;;14.23;8.90;;;10.60;99.90;;;;;;5026027;28;20044;-73
2021/11/25 10:02:54;;;;;;;13.15;8.07;;;10.60;99.90;;;;;;5027618;28;20044;-73
2021/11/25 10:06:00;;;;;;;13.60;8.15;;;10.80;99.90;;;;;;5031191;28;20060;-73
2021/11/25 10:09:06;;;;;;;10.90;7.95;;;11.00;99.90;;;;;;5027954;28;20396;-73
2021/11/25 10:12:34;;;;;;;12.30;8.20;;;11.20;99.90;;;;;;5028939;28;20037;-73
2021/11/25 10:15:40;;;;;;;11.73;8.13;;;11.30;99.90;;;;;;5022728;28;20515;-73
2021/11/25 10:18:45;;;;;;;13.80;8.10;;;11.30;99.90;;;;;;5036672;28;20040;-73
2021/11/25 10:21:56;;;;;;;13.00;8.68;;;11.20;99.90;;;;;;5029097;28;20057;-72
2021/11/25 10:25:02;;;;;;;14.13;8.45;;;11.20;99.90;;;;;;5028969;28;20041;-72
2021/11/25 10:28:07;;;;;;;11.75;8.50;;;11.20;99.90;;;;;;5029800;28;20052;-72
2021/11/25 10:31:16;;;;;;;14.55;9.05;;;11.30;99.90;;;;;;5022100;28;20045;-72
2021/11/25 10:34:22;;;;;;;13.63;8.98;;;11.50;99.90;;;;;;5027733;28;20056;-73
2021/11/25 10:37:52;;;;;;;14.98;8.38;;;11.70;99.90;;;;;;5029055;28;20052;-73
2021/11/25 10:40:56;;;;;;;14.38;8.30;;;11.70;99.90;;;;;;5027520;28;20491;-73
2021/11/25 10:44:07;;;;;;;12.50;8.77;;;11.50;99.90;;;;;;5027732;28;20048;-73
2021/11/25 10:47:14;;;;;;;13.18;9.30;;;11.40;99.90;;;;;;5028117;28;20052;-73
2021/11/25 10:50:19;;;;;;;12.95;9.13;;;11.30;99.90;;;;;;5027570;28;20048;-73
2021/11/25 10:53:23;;;;;;;23.70;10.82;;;11.10;99.90;;;;;;5029245;28;20045;-72
2021/11/25 10:56:47;;;;;;;17.15;11.18;;;10.70;99.90;;;;;;5030790;28;20400;-72
2021/11/25 10:59:53;;;;;;;15.35;10.25;;;10.40;99.90;;;;;;5027426;28;20372;-72
2021/11/25 11:03:07;;;;;;;15.75;10.80;;;10.20;99.90;;;;;;5028638;28;20048;-72
2021/11/25 11:06:11;;;;;;;19.13;11.85;;;10.30;99.90;;;;;;5028392;28;20044;-73
2021/11/25 11:09:39;;;;;;;18.08;11.25;;;10.30;99.90;;;;;;5031400;28;20048;-73
2021/11/25 11:16:30;;;;;;;17.15;10.82;;;10.40;99.90;;;;;;5030444;28;20514;-73
2021/11/25 11:19:34;;;;;;;18.73;10.45;;;10.30;99.90;;;;;;5029083;28;20606;-73
2021/11/25 11:22:38;;;;;;;21.48;11.40;;;10.30;99.90;;;;;;5031112;28;20064;-73
2021/11/25 11:25:43;;;;;;;19.52;11.43;;;10.30;99.90;;;;;;5031927;28;20054;-73
2021/11/25 11:28:47;;;;;;;17.85;10.43;;;10.40;99.90;;;;;;5032448;28;20049;-73
2021/11/25 11:31:56;;;;;;;20.70;11.38;;;10.40;99.90;;;;;;5030093;28;20049;-73
2021/11/25 11:35:00;;;;;;;17.63;10.82;;;10.40;99.90;;;;;;5031590;28;20407;-73
2021/11/25 11:38:06;;;;;;;19.42;11.82;;;10.40;99.90;;;;;;5030814;28;20392;-73
2021/11/25 11:41:11;;;;;;;17.75;10.55;;;10.30;99.90;;;;;;5020062;28;20498;-73
2021/11/25 11:44:20;;;;;;;17.48;9.98;;;10.30;99.90;;;;;;5033274;28;20040;-73
2021/11/25 11:47:25;;;;;;;17.25;10.57;;;10.30;99.90;;;;;;5028806;28;20040;-73
2021/11/25 11:50:37;;;;;;;21.65;13.35;;;10.40;99.90;;;;;;5027437;28;20400;-73
2021/11/25 11:53:44;;;;;;;22.25;13.35;;;10.50;99.90;;;;;;5020576;28;20041;-74
2021/11/25 11:56:49;;;;;;;20.05;11.15;;;10.80;99.90;;;;;;5032950;28;20388;-73
2021/11/25 11:59:55;;;;;;;19.13;11.60;;;11.20;99.90;;;;;;5021627;28;20049;-73
2021/11/25 12:03:00;;;;;;;17.38;9.88;;;11.70;99.90;;;;;;5031071;28;20044;-73
2021/11/25 12:06:06;;;;;;;17.58;10.70;;;11.80;99.90;;;;;;5033678;28;20067;-73
2021/11/25 12:09:16;;;;;;;15.23;9.88;;;11.70;99.90;;;;;;5029604;28;20053;-73
2021/11/25 12:12:21;;;;;;;16.17;10.88;;;11.60;99.90;;;;;;5031438;28;20384;-73
2021/11/25 12:15:25;;;;;;;14.32;9.70;;;11.40;99.90;;;;;;5030189;28;20044;-73
2021/11/25 12:18:35;;;;;;;17.13;10.55;;;11.40;99.90;;;;;;5029400;28;20044;-73
2021/11/25 12:21:42;;;;;;;19.23;11.05;;;11.30;99.90;;;;;;5031491;28;20069;-73
2021/11/25 12:25:00;;;;;;;15.80;10.90;;;11.30;99.90;;;;;;5032755;28;20049;-73
2021/11/25 12:28:19;;;;;;;16.85;10.43;;;11.20;99.90;;;;;;5026867;28;20118;-73
2021/11/25 12:31:41;;;;;;;22.83;14.07;;;11.30;99.90;;;;;;5028379;28;20053;-73
2021/11/25 12:34:45;;;;;;;18.98;11.38;;;11.50;99.90;;;;;;5030338;28;20041;-72
2021/11/25 12:38:00;;;;;;;15.88;11.07;;;11.70;99.90;;;;;;5029681;28;20385;-73
2021/11/25 12:41:08;;;;;;;14.68;9.52;;;11.90;99.90;;;;;;5026011;28;20499;-73
2021/11/25 12:44:13;;;;;;;15.63;8.95;;;12.00;99.90;;;;;;5031143;28;20045;-73
2021/11/25 12:47:17;;;;;;;17.75;10.55;;;11.50;99.90;;;;;;5030521;28;20044;-73
2021/11/25 12:50:22;;;;;;;17.88;10.63;;;11.40;99.90;;;;;;5027648;28;20384;-73
2021/11/25 12:53:34;;;;;;;18.02;10.73;;;11.10;99.90;;;;;;5029740;28;20496;-73
2021/11/25 12:56:42;;;;;;;18.63;11.27;;;11.10;99.90;;;;;;5029721;28;20049;-73
2021/11/25 12:59:46;;;;;;;32.65;19.25;;;11.10;99.90;;;;;;5029173;28;20403;-73
2021/11/25 13:03:12;;;;;;;32.40;19.05;;;11.20;99.90;;;;;;5029251;28;20048;-73
2021/11/25 13:06:18;;;;;;;17.63;11.95;;;11.30;99.90;;;;;;5029336;28;20574;-73
2021/11/25 13:09:35;;;;;;;17.25;11.38;;;11.20;99.90;;;;;;5028188;28;20404;-73
2021/11/25 13:12:39;;;;;;;21.73;13.77;;;11.40;99.90;;;;;;5027174;28;20040;-73
2021/11/25 13:15:59;;;;;;;19.92;12.30;;;11.40;99.90;;;;;;5027829;28;20053;-73
2021/11/25 13:19:25;;;;;;;19.75;11.90;;;11.20;99.90;;;;;;5030616;28;20049;-73
2021/11/25 13:22:29;;;;;;;20.15;12.07;;;11.20;99.90;;;;;;5027045;28;20056;-73
2021/11/25 13:25:33;;;;;;;18.35;11.48;;;11.30;99.90;;;;;;5026051;28;20311;-73
2021/11/25 13:28:39;;;;;;;17.90;11.00;;;11.20;99.90;;;;;;5030603;28;20148;-72
2021/11/25 13:31:45;;;;;;;19.13;11.85;;;11.20;99.90;;;;;;5030059;28;20040;-73
2021/11/25 13:34:56;;;;;;;19.38;11.15;;;11.30;99.90;;;;;;5021579;28;20068;-73
2021/11/25 13:38:00;;;;;;;16.63;10.60;;;11.40;99.90;;;;;;5027922;28;20049;-73
2021/11/25 13:41:04;;;;;;;21.33;10.40;;;11.40;99.90;;;;;;5040215;28;20048;-73
2021/11/25 13:44:08;;;;;;;14.57;9.45;;;11.50;99.90;;;;;;5029177;28;20060;-73
2021/11/25 13:47:20;;;;;;;19.67;10.57;;;11.50;99.90;;;;;;5029337;28;20388;-73
2021/11/25 13:50:25;;;;;;;17.73;11.27;;;11.60;99.90;;;;;;5030588;28;20036;-73
2021/11/25 13:53:30;;;;;;;18.75;11.07;;;11.60;99.90;;;;;;5029006;28;20511;-73
2021/11/25 13:56:35;;;;;;;19.70;10.77;;;11.60;99.90;;;;;;5026770;28;20053;-73
2021/11/25 13:59:39;;;;;;;16.48;9.68;;;11.60;99.90;;;;;;5027569;28;20048;-73
2021/11/25 14:02:44;;;;;;;16.48;11.90;;;11.60;99.90;;;;;;5029241;28;20037;-73
2021/11/25 14:05:52;;;;;;;22.48;13.23;;;11.50;99.90;;;;;;5028233;28;20053;-73
2021/11/25 14:09:26;;;;;;;18.33;11.55;;;11.50;99.90;;;;;;5027507;28;20060;-73
2021/11/25 14:12:32;;;;;;;19.40;12.55;;;11.40;99.90;;;;;;5027726;28;20064;-73
2021/11/25 14:15:39;;;;;;;19.73;12.10;;;11.30;99.90;;;;;;5026516;28;20044;-73
2021/11/25 14:18:44;;;;;;;21.38;13.25;;;11.30;99.90;;;;;;5037073;28;20041;-73
2021/11/25 14:21:58;;;;;;;20.38;11.90;;;11.20;99.90;;;;;;5030364;28;20037;-73
2021/11/25 14:25:04;;;;;;;17.48;11.45;;;11.00;99.90;;;;;;5029319;28;20068;-73
2021/11/25 14:31:51;;;;;;;25.92;13.35;;;11.00;99.90;;;;;;5028024;28;20068;-73
2021/11/25 14:34:56;;;;;;;24.30;16.92;;;10.90;99.90;;;;;;5028651;28;20044;-73
2021/11/25 14:38:21;;;;;;;30.17;17.35;;;10.80;99.90;;;;;;5028489;28;20044;-73
2021/11/25 14:41:32;;;;;;;24.70;15.00;;;10.80;99.90;;;;;;5025742;28;20040;-73
2021/11/25 14:44:36;;;;;;;19.58;12.57;;;10.70;99.90;;;;;;5029846;28;20044;-73
2021/11/25 14:47:49;;;;;;;24.42;16.33;;;10.70;99.90;;;;;;5032302;28;20499;-73
2021/11/25 14:50:59;;;;;;;21.75;13.85;;;10.70;99.90;;;;;;5031545;28;20117;-73
2021/11/25 14:54:04;;;;;;;21.95;14.90;;;10.60;99.90;;;;;;5033985;28;20152;-73
2021/11/25 14:57:25;;;;;;;24.00;14.50;;;10.50;99.90;;;;;;5028531;28;20068;-73
2021/11/25 15:00:36;;;;;;;23.70;13.07;;;10.40;99.90;;;;;;5031506;28;20040;-74
2021/11/25 15:03:41;;;;;;;22.35;13.52;;;10.40;99.90;;;;;;5029930;28;20387;-73
2021/11/25 15:07:00;;;;;;;18.77;11.40;;;10.30;99.90;;;;;;5031101;28;20060;-73
2021/11/25 15:10:05;;;;;;;21.20;10.93;;;10.40;99.90;;;;;;5032598;28;20036;-73
2021/11/25 15:13:10;;;;;;;21.95;12.20;;;10.40;99.90;;;;;;5033222;28;20044;-73
2021/11/25 15:16:15;;;;;;;19.55;12.57;;;10.50;99.90;;;;;;5031325;28;20041;-73
2021/11/25 15:28:29;;;;;;;22.75;13.88;;;10.40;99.90;;;;;;5027874;28;20238;-73
2021/11/25 15:31:37;;;;;;;24.50;14.15;;;10.30;99.90;;;;;;5028451;28;20052;-73
2021/11/25 15:34:41;;;;;;;25.05;15.18;;;10.20;99.90;;;;;;5033004;28;20499;-73
2021/11/25 15:37:46;;;;;;;20.48;13.15;;;10.10;99.90;;;;;;5014303;28;20384;-73
2021/11/25 15:40:51;;;;;;;25.13;14.27;;;10.10;99.90;;;;;;5031503;28;20048;-73
2021/11/25 15:43:55;;;;;;;27.40;13.18;;;10.00;99.90;;;;;;5033052;28;20044;-73
2021/11/25 15:47:00;;;;;;;27.42;15.13;;;10.00;99.90;;;;;;5033564;28;20055;-73
2021/11/25 15:50:05;;;;;;;20.45;13.65;;;10.10;99.90;;;;;;5031735;28;20364;-73
2021/11/25 15:53:13;;;;;;;21.73;14.32;;;10.10;99.90;;;;;;5031399;28;20052;-73
2021/11/25 15:56:17;;;;;;;23.92;15.10;;;10.10;99.90;;;;;;5032322;28;20040;-73
2021/11/25 15:59:21;;;;;;;27.10;15.88;;;10.10;99.90;;;;;;5030249;28;20045;-73
2021/11/25 16:02:25;;;;;;;23.33;14.65;;;10.00;99.90;;;;;;5031823;28;20068;-73
2021/11/25 16:05:29;;;;;;;23.83;14.50;;;10.00;99.90;;;;;;5032402;28;20500;-73
2021/11/25 16:08:35;;;;;;;23.50;15.40;;;10.00;99.90;;;;;;5031346;28;20032;-73
2021/11/25 16:11:40;;;;;;;34.45;19.50;;;9.90;99.90;;;;;;5025728;28;20427;-72
2021/11/25 16:14:45;;;;;;;43.33;29.67;;;9.90;99.90;;;;;;5017178;28;20056;-73